Time;durP1;ratioP1;P1;durP2;ratioP2;P2;SDS_P1;SDS_P2;PMS_P1;PMS_P2;Temp;Humidity;BMP_temperature;BMP_pressure;BME280_temperature;BME280_humidity;BME280_pressure;Samples;Min_cycle;Max_cycle;Signal;HPM_P1;HPM_P2
2024/01/02 00:00:40;;;;;;;8.30;1.20;;;;;;;8.80;100.00;99887.06;5270156;28;20676;-76
2024/01/02 00:03:11;;;;;;;9.75;1.50;;;;;;;8.79;100.00;99882.75;5275556;28;20085;-76
2024/01/02 00:05:41;;;;;;;3.30;1.00;;;;;;;8.64;100.00;99868.47;5254524;28;20072;-76
2024/01/02 00:08:12;;;;;;;11.50;1.20;;;;;;;8.75;100.00;99874.22;5250586;28;20059;-76
2024/01/02 00:10:42;;;;;;;6.75;0.95;;;;;;;8.74;100.00;99853.84;5267485;28;20081;-76
2024/01/02 00:13:13;;;;;;;5.10;1.00;;;;;;;8.73;100.00;99840.63;5271381;28;20028;-75
2024/01/02 00:15:43;;;;;;;8.70;1.33;;;;;;;8.82;100.00;99845.75;5271523;28;20115;-76
2024/01/02 00:18:14;;;;;;;5.20;0.95;;;;;;;8.83;100.00;99841.22;5272203;28;20031;-76
2024/01/02 00:20:45;;;;;;;7.88;1.40;;;;;;;8.80;100.00;99815.69;5269034;28;20015;-76
2024/01/02 00:23:16;;;;;;;5.03;1.13;;;;;;;8.76;100.00;99801.00;5270550;28;20085;-76
2024/01/02 00:25:47;;;;;;;5.80;0.95;;;;;;;8.61;100.00;99794.78;5272664;28;20016;-76
2024/01/02 00:28:18;;;;;;;5.57;0.85;;;;;;;8.71;100.00;99791.88;5265161;28;20542;-76
2024/01/02 00:30:49;;;;;;;4.20;0.90;;;;;;;8.62;100.00;99784.91;5263829;28;20036;-75
2024/01/02 00:33:19;;;;;;;7.45;0.77;;;;;;;8.75;100.00;99758.41;5267076;28;20034;-76
2024/01/02 00:35:50;;;;;;;1.50;0.60;;;;;;;8.86;100.00;99749.94;5251038;28;20028;-75
2024/01/02 00:38:22;;;;;;;1.95;0.75;;;;;;;8.71;100.00;99744.56;5269967;28;20073;-76
2024/01/02 00:40:53;;;;;;;2.42;0.73;;;;;;;8.75;100.00;99732.50;5271614;28;20020;-75
2024/01/02 00:43:23;;;;;;;3.33;0.80;;;;;;;8.74;100.00;99725.50;5269394;28;20070;-76
2024/01/02 00:45:55;;;;;;;3.88;0.90;;;;;;;8.80;100.00;99714.06;5261387;28;20482;-76
2024/01/02 00:48:26;;;;;;;6.57;0.80;;;;;;;8.72;100.00;99692.75;5264897;28;20110;-75
2024/01/02 00:50:57;;;;;;;2.20;0.57;;;;;;;8.87;100.00;99713.34;5267462;28;20119;-76
2024/01/02 00:53:27;;;;;;;1.45;0.50;;;;;;;8.89;100.00;99698.78;5263465;28;20432;-75
2024/01/02 00:55:58;;;;;;;3.03;0.50;;;;;;;8.81;100.00;99682.81;5269967;28;20043;-75
2024/01/02 00:58:28;;;;;;;2.33;0.93;;;;;;;8.91;100.00;99691.38;5265884;28;20024;-75
2024/01/02 01:00:59;;;;;;;1.98;0.70;;;;;;;8.93;100.00;99667.13;5263715;28;20400;-75
2024/01/02 01:03:30;;;;;;;1.08;0.40;;;;;;;8.94;100.00;99688.34;5273886;28;20034;-76
2024/01/02 01:06:00;;;;;;;2.92;0.70;;;;;;;9.02;100.00;99677.53;5264245;28;20024;-76
2024/01/02 01:08:31;;;;;;;0.65;0.40;;;;;;;8.93;100.00;99667.13;5268688;28;20027;-75
2024/01/02 01:11:01;;;;;;;4.32;0.50;;;;;;;8.84;100.00;99665.56;5269517;28;20024;-75
2024/01/02 01:13:32;;;;;;;0.80;0.45;;;;;;;8.87;100.00;99654.50;5270139;28;20453;-75
2024/01/02 01:16:03;;;;;;;0.80;0.40;;;;;;;8.89;100.00;99647.97;5267353;28;20106;-76
2024/01/02 01:18:33;;;;;;;1.25;0.50;;;;;;;8.99;100.00;99631.63;5266743;28;20020;-75
2024/01/02 01:21:04;;;;;;;2.17;0.43;;;;;;;8.92;100.00;99620.00;5264382;28;20028;-75
2024/01/02 01:23:34;;;;;;;1.13;0.30;;;;;;;9.08;100.00;99609.91;5265150;27;20024;-75
2024/01/02 01:26:05;;;;;;;1.27;0.40;;;;;;;9.00;100.00;99596.66;5262966;28;20020;-75
2024/01/02 01:28:35;;;;;;;0.85;0.50;;;;;;;8.95;100.00;99604.41;5261608;28;20032;-74
2024/01/02 01:31:06;;;;;;;1.83;0.38;;;;;;;9.04;100.00;99583.75;5264562;28;20450;-75
2024/01/02 01:33:36;;;;;;;0.50;0.30;;;;;;;9.10;100.00;99580.31;5269322;28;20032;-76
2024/01/02 01:36:07;;;;;;;0.52;0.20;;;;;;;9.11;100.00;99570.44;5265956;28;20021;-75
2024/01/02 01:38:37;;;;;;;0.40;0.25;;;;;;;9.02;100.00;99562.50;5268619;28;20028;-76
2024/01/02 01:41:08;;;;;;;1.30;0.22;;;;;;;9.11;100.00;99549.03;5265920;28;20076;-76
2024/01/02 01:43:39;;;;;;;1.58;0.35;;;;;;;9.12;100.00;99530.13;5263686;28;20039;-76
2024/01/02 01:46:09;;;;;;;1.63;0.30;;;;;;;9.11;100.00;99527.63;5267841;28;20016;-76
2024/01/02 01:48:40;;;;;;;1.00;0.43;;;;;;;9.13;100.00;99517.56;5267778;27;20416;-75
2024/01/02 01:51:11;;;;;;;0.70;0.17;;;;;;;9.04;100.00;99512.34;5264029;28;20431;-75
2024/01/02 01:53:43;;;;;;;0.20;0.20;;;;;;;9.08;100.00;99500.22;5266801;28;20032;-74
2024/01/02 01:56:14;;;;;;;0.20;0.10;;;;;;;9.24;100.00;99501.03;5261881;28;20600;-75
2024/01/02 01:58:45;;;;;;;1.38;0.20;;;;;;;9.38;100.00;99486.75;5264470;28;20070;-76
2024/01/02 02:01:16;;;;;;;0.25;0.20;;;;;;;9.32;100.00;99479.47;5263649;28;20085;-75
2024/01/02 02:03:47;;;;;;;0.73;0.20;;;;;;;9.26;100.00;99465.03;5272716;28;20024;-76
2024/01/02 02:06:18;;;;;;;0.60;0.10;;;;;;;9.19;100.00;99455.28;5249667;28;20661;-75
2024/01/02 02:08:50;;;;;;;0.20;0.20;;;;;;;9.18;100.00;99451.75;5248346;28;20099;-75
2024/01/02 02:11:25;;;;;;;0.70;0.45;;;;;;;9.27;100.00;99441.75;5267335;28;20036;-76
2024/01/02 02:13:56;;;;;;;1.05;0.20;;;;;;;9.28;100.00;99432.72;5265212;28;20385;-75
2024/01/02 02:16:27;;;;;;;0.40;0.20;;;;;;;9.45;100.00;99423.41;5268904;28;20031;-76
2024/01/02 02:18:57;;;;;;;0.70;0.15;;;;;;;9.26;100.00;99421.38;5269889;28;20476;-76
2024/01/02 02:21:29;;;;;;;1.00;0.20;;;;;;;9.45;100.00;99426.06;5268422;28;20062;-75
2024/01/02 02:24:00;;;;;;;0.73;0.25;;;;;;;9.40;100.00;99404.41;5267713;28;20035;-76
2024/01/02 02:26:42;;;;;;;0.57;0.35;;;;;;;9.42;100.00;99393.50;5268509;28;20480;-76
2024/01/02 02:29:17;;;;;;;2.00;0.30;;;;;;;9.42;100.00;99385.47;5242474;28;20038;-76
2024/01/02 02:31:56;;;;;;;1.08;0.17;;;;;;;9.43;100.00;99392.47;5260546;28;20028;-76
2024/01/02 02:34:26;;;;;;;0.22;0.10;;;;;;;9.51;100.00;99387.81;5251892;28;20092;-76
2024/01/02 02:36:57;;;;;;;0.10;0.10;;;;;;;9.55;100.00;99382.91;5266414;28;20028;-75
2024/01/02 02:39:27;;;;;;;0.20;0.20;;;;;;;9.64;100.00;99380.88;5269123;28;20709;-76
2024/01/02 02:41:58;;;;;;;0.95;0.28;;;;;;;9.60;100.00;99381.28;5261906;28;20413;-76
2024/01/02 02:44:28;;;;;;;0.20;0.10;;;;;;;9.70;100.00;99367.56;5267765;28;20462;-75
2024/01/02 02:46:59;;;;;;;1.65;0.20;;;;;;;9.71;100.00;99376.41;5267624;28;20036;-76
2024/01/02 02:49:31;;;;;;;0.68;0.17;;;;;;;9.71;100.00;99366.53;5264569;28;20028;-76
2024/01/02 02:52:01;;;;;;;0.38;0.30;;;;;;;9.72;100.00;99364.69;5268268;28;20547;-75
2024/01/02 02:54:33;;;;;;;2.75;0.20;;;;;;;9.73;100.00;99347.56;5266647;28;20027;-76
2024/01/02 02:57:05;;;;;;;0.57;0.35;;;;;;;9.83;100.00;99346.19;5263179;28;20039;-76
2024/01/02 02:59:36;;;;;;;1.50;0.35;;;;;;;9.89;100.00;99341.91;5266507;28;20020;-76
2024/01/02 03:02:06;;;;;;;2.63;0.30;;;;;;;9.88;100.00;99342.91;5267985;28;20032;-76
2024/01/02 03:04:37;;;;;;;0.77;0.10;;;;;;;9.97;100.00;99332.88;5264359;28;20030;-75
2024/01/02 03:07:09;;;;;;;0.30;0.20;;;;;;;9.92;100.00;99322.75;5264785;28;20478;-76
2024/01/02 03:09:43;;;;;;;0.30;0.13;;;;;;;10.02;100.00;99325.06;5265677;28;20024;-76
2024/01/02 03:12:14;;;;;;;1.90;0.28;;;;;;;9.97;100.00;99314.94;5263661;28;20032;-76
2024/01/02 03:14:44;;;;;;;0.20;0.10;;;;;;;10.08;100.00;99311.69;5266767;28;20620;-77
2024/01/02 03:17:15;;;;;;;0.32;0.20;;;;;;;10.21;100.00;99302.88;5265235;28;20040;-75
2024/01/02 03:19:46;;;;;;;0.25;0.20;;;;;;;10.18;100.00;99305.13;5263224;28;20044;-76
2024/01/02 03:22:16;;;;;;;0.20;0.10;;;;;;;10.27;100.00;99304.78;5265569;28;20023;-76
2024/01/02 03:24:47;;;;;;;0.00;0.00;;;;;;;10.23;100.00;99303.50;5267511;28;20027;-76
2024/01/02 03:27:18;;;;;;;0.95;0.10;;;;;;;10.32;100.00;99285.41;5264180;28;20635;-76
2024/01/02 03:29:48;;;;;;;0.10;0.10;;;;;;;10.36;100.00;99282.13;5265787;28;20039;-76
2024/01/02 03:32:19;;;;;;;0.32;0.25;;;;;;;10.40;100.00;99277.19;5267145;28;20032;-76
2024/01/02 03:34:51;;;;;;;0.57;0.13;;;;;;;10.43;100.00;99271.41;5268687;28;20024;-76
2024/01/02 03:37:21;;;;;;;2.28;0.15;;;;;;;10.63;100.00;99271.44;5269396;28;20039;-76
2024/01/02 03:39:52;;;;;;;0.13;0.10;;;;;;;10.74;100.00;99270.81;5264031;28;20489;-75
2024/01/02 03:42:22;;;;;;;3.00;0.25;;;;;;;10.67;100.00;99255.78;5264485;28;20039;-75
2024/01/02 03:44:53;;;;;;;0.20;0.15;;;;;;;10.76;100.00;99265.28;5258647;28;20047;-75
2024/01/02 03:47:23;;;;;;;0.20;0.20;;;;;;;10.87;100.00;99259.28;5266162;28;20651;-75
2024/01/02 03:49:54;;;;;;;0.60;0.20;;;;;;;10.94;100.00;99246.69;5265483;28;20028;-74
2024/01/02 03:52:25;;;;;;;0.30;0.30;;;;;;;10.95;100.00;99264.47;5268497;28;20047;-75
2024/01/02 03:54:55;;;;;;;0.40;0.30;;;;;;;10.98;100.00;99266.72;5265905;28;20537;-75
2024/01/02 03:57:27;;;;;;;0.35;0.30;;;;;;;11.06;100.00;99269.19;5266026;28;20122;-75
2024/01/02 03:59:58;;;;;;;1.38;0.40;;;;;;;11.08;100.00;99236.78;5265449;28;20027;-75
2024/01/02 04:02:28;;;;;;;1.50;0.40;;;;;;;11.08;100.00;99242.97;5265472;28;20035;-75
2024/01/02 04:04:59;;;;;;;1.27;0.60;;;;;;;11.20;100.00;99255.75;5265044;28;20051;-76
2024/01/02 04:07:29;;;;;;;1.35;0.60;;;;;;;11.31;100.00;99255.94;5266295;28;20042;-76
2024/01/02 04:10:00;;;;;;;1.38;0.52;;;;;;;11.38;100.00;99258.59;5263053;28;20729;-76
2024/01/02 04:12:30;;;;;;;1.85;0.68;;;;;;;11.38;100.00;99258.59;5265054;28;20670;-75
2024/01/02 04:15:01;;;;;;;1.20;0.40;;;;;;;11.44;100.00;99256.94;5268429;28;20042;-75
2024/01/02 04:17:32;;;;;;;0.85;0.60;;;;;;;11.44;100.00;99252.38;5269095;28;20100;-76
2024/01/02 04:20:02;;;;;;;1.10;0.50;;;;;;;11.49;100.00;99262.50;5269819;28;20071;-75
2024/01/02 04:22:33;;;;;;;0.57;0.40;;;;;;;11.59;100.00;99265.56;5263554;28;20063;-75
2024/01/02 04:25:04;;;;;;;1.50;0.55;;;;;;;11.51;100.00;99257.75;5268252;28;20036;-76
2024/01/02 04:27:35;;;;;;;1.00;0.28;;;;;;;11.56;100.00;99263.31;5271610;28;21954;-75
2024/01/02 04:30:06;;;;;;;0.50;0.20;;;;;;;11.66;100.00;99264.53;5266081;28;20028;-76
2024/01/02 04:32:36;;;;;;;0.10;0.10;;;;;;;11.66;100.00;99264.53;5267181;28;20031;-76
2024/01/02 04:35:07;;;;;;;0.20;0.20;;;;;;;11.72;100.00;99273.59;5268652;28;20028;-76
2024/01/02 04:37:38;;;;;;;0.43;0.20;;;;;;;11.59;100.00;99269.06;5265703;28;20023;-75
2024/01/02 04:40:10;;;;;;;0.35;0.10;;;;;;;11.68;100.00;99270.50;5267552;28;20020;-76
2024/01/02 04:42:41;;;;;;;0.13;0.10;;;;;;;11.79;100.00;99271.69;5267828;28;20517;-74
2024/01/02 04:45:11;;;;;;;0.00;0.00;;;;;;;11.69;100.00;99274.00;5269620;28;20032;-75
2024/01/02 04:47:42;;;;;;;1.65;0.30;;;;;;;11.71;100.00;99284.56;5267935;28;20024;-76
2024/01/02 04:50:12;;;;;;;0.20;0.10;;;;;;;11.69;100.00;99282.06;5270182;28;20488;-74
2024/01/02 04:52:43;;;;;;;0.55;0.20;;;;;;;11.76;100.00;99279.38;5268891;28;20029;-76
2024/01/02 04:55:16;;;;;;;0.20;0.20;;;;;;;11.73;100.00;99274.41;5270703;28;20054;-75
2024/01/02 04:57:47;;;;;;;0.20;0.10;;;;;;;11.86;100.00;99274.41;5265040;28;20020;-75
2024/01/02 05:00:17;;;;;;;0.98;0.10;;;;;;;11.91;100.00;99279.97;5267955;28;20028;-74
2024/01/02 05:02:48;;;;;;;0.10;0.10;;;;;;;11.85;100.00;99291.56;5267400;28;20103;-74
2024/01/02 05:05:18;;;;;;;0.05;0.00;;;;;;;11.82;100.00;99282.06;5269194;28;20035;-75
2024/01/02 05:07:49;;;;;;;1.58;0.20;;;;;;;11.88;100.00;99294.66;5262769;28;20385;-74
2024/01/02 05:10:19;;;;;;;0.40;0.15;;;;;;;11.88;100.00;99304.56;5269333;28;20085;-74
2024/01/02 05:12:51;;;;;;;1.05;0.20;;;;;;;11.88;100.00;99308.06;5268018;28;20016;-75
2024/01/02 05:15:21;;;;;;;0.30;0.20;;;;;;;11.94;100.00;99311.78;5266703;28;20032;-75
2024/01/02 05:17:52;;;;;;;1.48;0.10;;;;;;;11.85;100.00;99313.06;5267776;28;20020;-75
2024/01/02 05:20:22;;;;;;;0.30;0.17;;;;;;;11.98;100.00;99320.25;5267587;28;20031;-76
2024/01/02 05:22:53;;;;;;;0.40;0.20;;;;;;;12.02;100.00;99313.41;5267944;28;20031;-75
2024/01/02 05:25:23;;;;;;;0.10;0.10;;;;;;;11.97;100.00;99316.75;5267464;28;20593;-75
2024/01/02 05:27:53;;;;;;;0.10;0.10;;;;;;;12.00;100.00;99316.31;5265335;28;20464;-75
2024/01/02 05:30:25;;;;;;;1.38;0.38;;;;;;;12.03;100.00;99323.13;5268269;28;20023;-75
2024/01/02 05:32:56;;;;;;;12.52;9.32;;;;;;;12.02;100.00;99324.16;5262722;28;20020;-75
2024/01/02 05:35:26;;;;;;;0.70;0.47;;;;;;;12.03;100.00;99329.31;5269983;28;20052;-76
2024/01/02 05:37:57;;;;;;;0.20;0.20;;;;;;;12.04;100.00;99311.31;5269848;28;20020;-76
2024/01/02 05:40:27;;;;;;;0.50;0.35;;;;;;;12.04;100.00;99322.91;5267172;28;20028;-76
2024/01/02 05:42:58;;;;;;;4.55;4.15;;;;;;;12.03;100.00;99323.94;5268700;28;20115;-75
2024/01/02 05:45:28;;;;;;;1.40;1.30;;;;;;;12.05;100.00;99334.47;5269627;28;20457;-75
2024/01/02 05:47:59;;;;;;;2.45;0.65;;;;;;;12.08;100.00;99329.50;5267594;28;20031;-75
2024/01/02 05:50:29;;;;;;;3.50;2.60;;;;;;;12.10;100.00;99335.50;5269683;28;20495;-75
2024/01/02 05:53:00;;;;;;;0.77;0.73;;;;;;;12.12;100.00;99336.13;5264568;28;20023;-74
2024/01/02 05:55:30;;;;;;;2.20;1.45;;;;;;;12.15;100.00;99351.84;5267287;28;20032;-75
2024/01/02 05:58:01;;;;;;;13.20;9.75;;;;;;;12.19;100.00;99354.91;5267300;28;20027;-75
2024/01/02 06:00:32;;;;;;;2.40;1.42;;;;;;;12.20;100.00;99348.50;5266758;28;20624;-76
2024/01/02 06:03:02;;;;;;;2.22;1.30;;;;;;;12.29;100.00;99351.75;5269198;28;20024;-75
2024/01/02 06:05:33;;;;;;;26.65;18.35;;;;;;;12.28;100.00;99363.56;5266001;28;20034;-75
2024/01/02 06:08:03;;;;;;;6.45;4.60;;;;;;;12.31;100.00;99371.22;5264816;28;20073;-74
2024/01/02 06:10:34;;;;;;;2.05;1.10;;;;;;;12.38;100.00;99362.06;5265853;28;20024;-75
2024/01/02 06:13:05;;;;;;;1.52;1.20;;;;;;;12.35;100.00;99372.41;5268388;28;20507;-75
2024/01/02 06:15:35;;;;;;;3.50;1.50;;;;;;;12.42;100.00;99363.28;5244621;28;20028;-75
2024/01/02 06:18:06;;;;;;;20.98;15.63;;;;;;;12.44;100.00;99355.00;5265814;28;20077;-75
2024/01/02 06:20:36;;;;;;;15.25;13.60;;;;;;;12.33;100.00;99363.75;5266751;28;20027;-75
2024/01/02 06:23:07;;;;;;;5.68;1.95;;;;;;;12.37;100.00;99359.59;5264022;28;20032;-75
2024/01/02 06:25:37;;;;;;;5.32;4.50;;;;;;;12.48;100.00;99366.16;5263565;28;20059;-74
2024/01/02 06:28:08;;;;;;;5.15;3.05;;;;;;;12.54;100.00;99362.59;5266366;28;20028;-75
2024/01/02 06:30:38;;;;;;;3.17;1.13;;;;;;;12.46;100.00;99355.63;5268934;28;20069;-75
2024/01/02 06:33:09;;;;;;;3.60;0.90;;;;;;;12.58;100.00;99361.97;5266679;28;20031;-75
2024/01/02 06:35:40;;;;;;;2.30;1.30;;;;;;;12.52;100.00;99367.38;5266465;27;20031;-75
2024/01/02 06:38:11;;;;;;;2.92;0.60;;;;;;;12.53;100.00;99372.53;5268806;28;20028;-75
2024/01/02 06:40:41;;;;;;;0.70;0.70;;;;;;;12.58;100.00;99375.41;5266272;28;20540;-75
2024/01/02 06:43:12;;;;;;;1.40;0.60;;;;;;;12.54;100.00;99368.81;5268017;28;20074;-75
2024/01/02 06:45:46;;;;;;;0.80;0.52;;;;;;;12.49;100.00;99367.81;5268700;27;20126;-75
2024/01/02 06:48:16;;;;;;;0.43;0.43;;;;;;;12.49;100.00;99359.72;5269318;28;20020;-75
2024/01/02 06:50:48;;;;;;;1.13;0.65;;;;;;;12.57;100.00;99368.38;5267374;28;20024;-75
2024/01/02 06:53:19;;;;;;;1.17;1.17;;;;;;;12.53;100.00;99372.53;5266409;28;20069;-76
2024/01/02 06:55:49;;;;;;;1.58;0.55;;;;;;;12.55;100.00;99375.00;5266900;28;20389;-74
2024/01/02 06:58:20;;;;;;;0.73;0.50;;;;;;;12.43;100.00;99377.56;5263809;28;20111;-75
2024/01/02 07:00:51;;;;;;;1.15;0.80;;;;;;;12.49;100.00;99376.69;5260863;28;20024;-75
2024/01/02 07:03:21;;;;;;;1.23;1.00;;;;;;;12.54;100.00;99374.19;5271017;28;20035;-74
2024/01/02 07:05:52;;;;;;;0.77;0.50;;;;;;;12.58;100.00;99393.41;5266678;28;20071;-75
2024/01/02 07:08:23;;;;;;;0.65;0.52;;;;;;;12.56;100.00;99387.44;5264611;28;20074;-75
2024/01/02 07:10:53;;;;;;;1.25;0.90;;;;;;;12.56;100.00;99388.25;5265217;28;20028;-75
2024/01/02 07:13:24;;;;;;;1.08;0.68;;;;;;;12.57;100.00;99387.22;5267078;28;20055;-75
2024/01/02 07:15:55;;;;;;;1.45;0.80;;;;;;;12.53;100.00;99379.78;5262198;28;20103;-75
2024/01/02 07:18:28;;;;;;;1.83;1.00;;;;;;;12.56;100.00;99379.38;5268817;28;20030;-75
2024/01/02 07:20:58;;;;;;;1.02;0.75;;;;;;;12.53;100.00;99390.53;5266875;28;20070;-75
2024/01/02 07:23:29;;;;;;;7.03;3.88;;;;;;;12.55;100.00;99383.94;5267868;28;20384;-75
2024/01/02 07:25:59;;;;;;;80.90;48.97;;;;;;;12.64;100.00;99397.94;5266412;28;20032;-75
2024/01/02 07:28:30;;;;;;;172.80;109.70;;;;;;;12.59;100.00;99409.34;5273534;28;20115;-75
2024/01/02 07:31:01;;;;;;;22.17;13.40;;;;;;;12.64;100.00;99414.06;5274949;28;20023;-75
2024/01/02 07:33:31;;;;;;;17.77;12.80;;;;;;;12.63;100.00;99418.63;5275887;28;20043;-76
2024/01/02 07:36:02;;;;;;;7.05;4.65;;;;;;;12.60;100.00;99419.09;5272141;28;20019;-76
2024/01/02 07:38:32;;;;;;;1.45;1.05;;;;;;;12.59;100.00;99414.72;5277624;28;20019;-74
2024/01/02 07:41:03;;;;;;;3.30;3.00;;;;;;;12.63;100.00;99415.13;5266365;28;20035;-75
2024/01/02 07:43:33;;;;;;;1.27;0.98;;;;;;;12.57;100.00;99413.28;5261427;28;20039;-75
2024/01/02 07:46:04;;;;;;;4.63;0.80;;;;;;;12.54;100.00;99425.28;5272484;28;20040;-74
2024/01/02 07:48:35;;;;;;;1.40;0.88;;;;;;;12.57;100.00;99424.06;5281971;28;20447;-75
2024/01/02 07:51:07;;;;;;;2.63;2.20;;;;;;;12.58;100.00;99425.69;5270676;27;20047;-75
2024/01/02 07:53:37;;;;;;;1.08;0.95;;;;;;;12.59;100.00;99428.16;5282980;27;20442;-75
2024/01/02 07:56:08;;;;;;;1.17;1.00;;;;;;;12.56;100.00;99422.41;5275180;28;20028;-75
2024/01/02 07:58:38;;;;;;;0.88;0.88;;;;;;;12.58;100.00;99415.75;5270417;28;20023;-74
2024/01/02 08:01:09;;;;;;;2.85;0.80;;;;;;;12.65;100.00;99418.41;5276327;28;20023;-75
2024/01/02 08:03:40;;;;;;;4.03;0.90;;;;;;;12.61;100.00;99411.84;5276322;28;20610;-75
2024/01/02 08:06:10;;;;;;;1.52;0.93;;;;;;;12.64;100.00;99414.91;5279885;27;20028;-75
2024/01/02 08:08:41;;;;;;;1.25;0.82;;;;;;;12.58;100.00;99415.75;5272731;28;20382;-74
2024/01/02 08:11:12;;;;;;;1.58;1.00;;;;;;;12.56;100.00;99411.66;5276212;28;20028;-75
2024/01/02 08:13:43;;;;;;;3.67;0.77;;;;;;;12.51;100.00;99414.97;5276936;28;20020;-77
2024/01/02 08:16:13;;;;;;;1.23;0.85;;;;;;;12.62;100.00;99410.78;5286466;27;20529;-77
2024/01/02 08:18:44;;;;;;;2.92;0.70;;;;;;;12.66;100.00;99414.72;5285426;28;20036;-77
2024/01/02 08:21:15;;;;;;;0.60;0.50;;;;;;;12.61;100.00;99419.91;5283093;28;20095;-75
2024/01/02 08:23:47;;;;;;;1.58;0.50;;;;;;;12.69;100.00;99420.47;5275585;28;20054;-75
2024/01/02 08:26:18;;;;;;;0.45;0.45;;;;;;;12.73;100.00;99411.97;5278270;28;20478;-76
2024/01/02 08:28:48;;;;;;;1.98;0.70;;;;;;;12.69;100.00;99427.72;5276913;28;20081;-76
2024/01/02 08:31:19;;;;;;;1.38;0.60;;;;;;;12.76;100.00;99409.69;5278724;28;20027;-75
2024/01/02 08:33:49;;;;;;;1.42;0.40;;;;;;;12.77;100.00;99416.72;5273483;28;20105;-75
2024/01/02 08:36:20;;;;;;;2.35;0.40;;;;;;;12.88;100.00;99416.03;5277161;27;20027;-75
2024/01/02 08:38:50;;;;;;;0.40;0.38;;;;;;;12.96;100.00;99417.66;5278396;28;20579;-76
2024/01/02 08:41:21;;;;;;;3.58;0.40;;;;;;;12.92;100.00;99417.25;5276469;28;20024;-74
2024/01/02 08:43:52;;;;;;;1.35;0.82;;;;;;;13.01;100.00;99409.75;5277468;28;20027;-75
2024/01/02 08:46:22;;;;;;;1.58;0.95;;;;;;;12.92;100.00;99411.03;5278638;27;20028;-76
2024/01/02 08:48:53;;;;;;;4.10;1.67;;;;;;;12.88;100.00;99407.13;5279274;27;20031;-75
2024/01/02 08:51:25;;;;;;;2.20;1.45;;;;;;;12.94;100.00;99407.06;5274160;28;20147;-76
2024/01/02 08:53:57;;;;;;;0.80;0.77;;;;;;;12.99;100.00;99400.22;5273895;28;20059;-76
2024/01/02 08:56:27;;;;;;;2.33;1.10;;;;;;;13.05;100.00;99400.19;5275449;28;20638;-75
2024/01/02 08:58:58;;;;;;;0.75;0.60;;;;;;;13.03;100.00;99391.50;5270552;28;20091;-76
2024/01/02 09:01:30;;;;;;;0.65;0.50;;;;;;;13.10;100.00;99394.13;5273207;28;20058;-76
2024/01/02 09:04:01;;;;;;;0.30;0.17;;;;;;;12.90;100.00;99386.19;5278260;28;20501;-76
2024/01/02 09:06:33;;;;;;;0.40;0.30;;;;;;;13.01;100.00;99382.81;5276782;27;20122;-76
2024/01/02 09:09:05;;;;;;;1.23;0.35;;;;;;;12.94;100.00;99384.72;5273151;28;20450;-76
2024/01/02 09:11:37;;;;;;;0.50;0.40;;;;;;;12.85;100.00;99378.78;5271582;28;20031;-76
2024/01/02 09:14:08;;;;;;;1.40;0.52;;;;;;;13.03;100.00;99374.53;5272138;28;20032;-76
2024/01/02 09:16:38;;;;;;;1.27;0.68;;;;;;;13.00;100.00;99374.94;5278000;28;20671;-75
2024/01/02 09:19:09;;;;;;;1.27;0.70;;;;;;;13.03;100.00;99361.06;5270739;28;20020;-76
2024/01/02 09:21:39;;;;;;;2.88;1.25;;;;;;;13.04;100.00;99366.22;5276069;27;20515;-76
2024/01/02 09:24:11;;;;;;;2.10;1.10;;;;;;;13.05;100.00;99357.13;5280939;28;20027;-76
2024/01/02 09:26:45;;;;;;;2.25;1.25;;;;;;;12.89;100.00;99365.72;5277188;28;20401;-77
2024/01/02 09:29:16;;;;;;;3.78;1.20;;;;;;;12.96;100.00;99353.88;5276741;28;20122;-76
2024/01/02 09:31:47;;;;;;;2.80;1.70;;;;;;;13.09;100.00;99350.25;5277608;28;20406;-75
2024/01/02 09:34:18;;;;;;;3.15;1.65;;;;;;;13.11;100.00;99364.31;5275318;28;20030;-77
2024/01/02 09:36:55;;;;;;;2.80;1.80;;;;;;;13.12;100.00;99357.88;5275403;28;20039;-76
2024/01/02 09:39:25;;;;;;;2.08;1.25;;;;;;;13.11;100.00;99364.31;5271300;28;20046;-76
2024/01/02 09:42:07;;;;;;;2.97;1.60;;;;;;;13.08;100.00;99356.66;5271465;28;20028;-76
2024/01/02 09:44:44;;;;;;;4.55;1.70;;;;;;;13.04;100.00;99350.06;5274591;28;20076;-76
2024/01/02 09:47:49;;;;;;;3.25;2.13;;;;;;;13.02;100.00;99357.56;5278312;28;20031;-77
2024/01/02 09:50:29;;;;;;;5.03;3.17;;;;;;;12.75;100.00;99345.31;5270509;28;20042;-75
2024/01/02 09:53:37;;;;;;;5.82;1.80;;;;;;;12.80;100.00;99348.16;5285638;27;20058;-77
2024/01/02 09:56:15;;;;;;;1.90;0.93;;;;;;;12.71;100.00;99350.31;5263138;28;20049;-77
2024/01/02 09:59:10;;;;;;;1.58;0.70;;;;;;;12.78;100.00;99348.38;5272721;28;20035;-77
2024/01/02 10:01:59;;;;;;;2.40;0.65;;;;;;;12.80;100.00;99343.63;5266766;28;20031;-76
2024/01/02 10:04:50;;;;;;;1.02;0.60;;;;;;;12.56;100.00;99336.34;5278842;28;20039;-76
2024/01/02 10:07:26;;;;;;;1.17;0.50;;;;;;;12.59;100.00;99334.00;5269527;28;20040;-77
2024/01/02 10:10:21;;;;;;;0.63;0.38;;;;;;;12.57;100.00;99330.72;5265768;28;20102;-75
2024/01/02 10:12:55;;;;;;;0.52;0.30;;;;;;;12.70;100.00;99327.97;5258415;28;20028;-74
2024/01/02 10:15:38;;;;;;;0.43;0.30;;;;;;;12.56;100.00;99322.88;5272989;28;20168;-76
2024/01/02 10:18:16;;;;;;;0.40;0.30;;;;;;;12.57;100.00;99328.03;5272677;28;20404;-76
2024/01/02 10:21:20;;;;;;;0.55;0.47;;;;;;;12.50;100.00;99297.66;5274794;27;20089;-76
2024/01/02 10:24:16;;;;;;;0.30;0.20;;;;;;;12.36;100.00;99310.38;5265733;28;20094;-76
2024/01/02 10:26:54;;;;;;;0.65;0.38;;;;;;;12.32;100.00;99303.75;5273973;28;20358;-75
2024/01/02 10:29:37;;;;;;;0.55;0.30;;;;;;;12.10;100.00;99297.06;5270932;28;20084;-75
2024/01/02 10:32:12;;;;;;;0.75;0.20;;;;;;;12.16;100.00;99294.34;5264447;28;20031;-76
2024/01/02 10:35:04;;;;;;;0.47;0.43;;;;;;;12.09;100.00;99295.38;5275900;28;20055;-76
2024/01/02 10:37:41;;;;;;;0.30;0.30;;;;;;;12.16;100.00;99280.88;5269527;28;20036;-76
2024/01/02 10:40:19;;;;;;;0.60;0.40;;;;;;;12.13;100.00;99267.88;5269857;28;20077;-76
2024/01/02 10:43:07;;;;;;;0.80;0.40;;;;;;;12.04;100.00;99246.81;5268481;28;20035;-74
2024/01/02 10:45:56;;;;;;;0.35;0.30;;;;;;;11.95;100.00;99246.25;5264418;28;20031;-75
2024/01/02 10:48:44;;;;;;;0.93;0.50;;;;;;;11.95;100.00;99248.97;5272621;28;20031;-76
2024/01/02 10:51:20;;;;;;;1.17;0.40;;;;;;;11.78;100.00;99226.25;5274607;28;20027;-76
2024/01/02 10:54:02;;;;;;;0.47;0.43;;;;;;;11.92;100.00;99234.06;5268687;28;20111;-76
2024/01/02 10:56:52;;;;;;;0.93;0.43;;;;;;;11.96;100.00;99229.09;5277572;28;20410;-75
2024/01/02 10:59:41;;;;;;;4.60;1.45;;;;;;;11.95;100.00;99219.38;5272531;28;20081;-76
2024/01/02 11:02:31;;;;;;;2.47;1.20;;;;;;;11.98;100.00;99210.06;5264656;28;20020;-76
2024/01/02 11:05:11;;;;;;;1.95;1.08;;;;;;;11.85;100.00;99197.53;5274814;28;20038;-76
2024/01/02 11:07:50;;;;;;;0.35;0.30;;;;;;;11.82;100.00;99201.47;5266668;28;20023;-76
2024/01/02 11:10:24;;;;;;;1.27;0.73;;;;;;;11.83;100.00;99195.03;5270109;28;20050;-75
2024/01/02 11:13:01;;;;;;;1.85;0.90;;;;;;;11.80;100.00;99182.03;5276652;28;20380;-75
2024/01/02 11:15:35;;;;;;;0.98;0.60;;;;;;;11.80;100.00;99181.19;5272804;28;20693;-76
2024/01/02 11:18:07;;;;;;;1.10;0.60;;;;;;;11.77;100.00;99173.56;5270153;28;20109;-76
2024/01/02 11:20:55;;;;;;;1.33;0.60;;;;;;;11.81;100.00;99172.91;5276542;28;20480;-75
2024/01/02 11:23:33;;;;;;;1.70;1.23;;;;;;;11.61;100.00;99156.06;5271052;28;20476;-76
2024/01/02 11:26:14;;;;;;;3.50;1.30;;;;;;;11.65;100.00;99166.19;5278240;28;20507;-75
2024/01/02 11:28:47;;;;;;;4.65;1.70;;;;;;;11.58;100.00;99154.63;5264638;28;20120;-76
2024/01/02 11:31:20;;;;;;;4.65;1.17;;;;;;;11.65;100.00;99144.69;5276021;28;20035;-76
2024/01/02 11:34:16;;;;;;;3.20;0.52;;;;;;;11.71;100.00;99139.50;5276114;28;20112;-75
2024/01/02 11:36:54;;;;;;;3.05;0.70;;;;;;;11.73;100.00;99132.84;5272683;28;20020;-76
2024/01/02 11:39:33;;;;;;;2.22;0.82;;;;;;;11.64;100.00;99124.22;5271471;28;20039;-75
2024/01/02 11:42:11;;;;;;;0.90;0.60;;;;;;;11.65;100.00;99120.53;5270891;28;20114;-76
2024/01/02 11:44:57;;;;;;;1.27;0.90;;;;;;;11.72;100.00;99117.78;5276033;28;20032;-77
2024/01/02 11:47:43;;;;;;;2.10;0.90;;;;;;;11.63;100.00;99102.97;5276183;28;20047;-76
2024/01/02 11:50:15;;;;;;;0.85;0.80;;;;;;;11.67;100.00;99105.00;5271530;28;20035;-76
2024/01/02 11:52:52;;;;;;;1.52;0.70;;;;;;;11.70;100.00;99093.00;5270297;28;20020;-76